Flight Track Log - Related Links

Times and Time Zones

All times are in EDT time to prevent confusion due to time zone crossing. See the EJA122 flight status page for this flight to view local times or setup timezone preferences in your user account.

Time Position Orientation Groundspeed Altitude Reporting Facility
EDT Latitude Longitude Course Direction KTS MPH feet Rate Location/Type
Sun 01:09:22 PM 38.1667 -78.4333 North 194 223 2,800  Level Potomac TRACON
Sun 01:09:41 PM 38.1939 -78.4292 North 247 284 3,700 2,506 Climbing Washington Center
Sun 01:10:41 PM 38.2019 -78.3583 82° East 271 312 6,100 2,650 Climbing Washington Center
Sun 01:11:41 PM 38.1383 -78.3108 150° Southeast 258 297 9,000 1,450 Climbing Washington Center
Sun 01:12:41 PM 38.0678 -78.2925 168° South 269 310 9,000 800 Level Washington Center
Sun 01:13:41 PM 37.9933 -78.2689 166° South 280 322 10,600 2,050 Climbing Washington Center
Sun 01:14:41 PM 37.9083 -78.2447 167° South 292 336 13,100 2,200 Climbing Washington Center
Sun 01:15:41 PM 37.8069 -78.2097 165° South 329 379 15,000 950 Climbing Washington Center
Sun 01:16:41 PM 37.7053 -78.1800 167° South 356 410 15,000  Level Washington Center
Sun 01:17:41 PM 37.6097 -78.1661 173° South 377 434 15,000  Level Washington Center
Sun 01:18:41 PM 37.4947 -78.1753 184° South 378 435 15,000  Level Washington Center
Sun 01:19:41 PM 37.3922 -78.1822 183° South 384 442 15,000  Level Washington Center
Sun 01:20:41 PM 37.3006 -78.1869 182° South 384 442 15,000  Level Washington Center
Sun 01:21:41 PM 37.1981 -78.1967 184° South 379 436 15,000  Level Washington Center
Sun 01:22:41 PM 37.0958 -78.2008 182° South 379 436 15,000  Level Washington Center
Sun 01:23:41 PM 36.9975 -78.1144 145° Southeast 361 415 15,000  Level Washington Center
Sun 01:24:41 PM 36.9158 -78.0233 138° Southeast 369 425 15,000  Level Washington Center
Sun 01:25:41 PM 36.8231 -77.9661 154° Southeast 379 436 15,000  Level Washington Center
Sun 01:26:41 PM 36.7283 -77.9036 152° Southeast 379 436 15,000 -50 Level Washington Center
Sun 01:27:41 PM 36.6356 -77.8439 153° Southeast 379 436 14,900 -50 Descending Washington Center
Sun 01:28:41 PM 36.5389 -77.7817 153° Southeast 385 443 14,900  Level Washington Center
Sun 01:29:41 PM 36.4458 -77.7247 154° Southeast 380 437 14,900  Level Washington Center
Sun 01:30:41 PM 36.3633 -77.6736 153° Southeast 375 432 14,900  Level Washington Center
Sun 01:31:41 PM 36.2664 -77.6092 152° Southeast 381 438 14,900  Level Washington Center
Sun 01:32:41 PM 36.1733 -77.5500 153° Southeast 381 438 14,900  Level Washington Center
Sun 01:33:41 PM 36.0806 -77.4914 153° Southeast 381 438 14,900 50 Level Washington Center
Sun 01:34:41 PM 35.9875 -77.4350 154° Southeast 381 438 15,000 50 Climbing Washington Center
Sun 01:35:41 PM 35.8967 -77.3739 151° Southeast 381 438 15,000  Level Washington Center
Sun 01:36:41 PM 35.8036 -77.3156 153° Southeast 381 438 15,000  Level Washington Center
Sun 01:37:41 PM 35.7064 -77.2572 154° Southeast 376 433 15,000  Level Washington Center
Sun 01:38:41 PM 35.6153 -77.2017 154° Southeast 376 433 15,000  Level Washington Center
Sun 01:39:41 PM 35.5242 -77.1436 153° Southeast 376 433 15,000 -400 Level Washington Center
Sun 01:40:41 PM 35.4331 -77.0883 154° Southeast 376 433 14,200 -1,250 Descending Washington Center
Sun 01:41:41 PM 35.3400 -77.0333 154° Southeast 371 427 12,500 -1,900 Descending Washington Center
Sun 01:42:41 PM 35.2550 -76.9783 152° Southeast 365 420 10,400 -2,100 Descending Washington Center
Sun 01:43:41 PM 35.1825 -76.9339 153° Southeast 331 381 8,300 -2,150 Descending Washington Center
Sun 01:44:41 PM 35.1142 -76.8922 153° Southeast 291 335 6,100 -2,300 Descending Washington Center
Sun 01:45:41 PM 35.0414 -76.8503 155° Southeast 270 311 3,700 -1,750 Descending Washington Center
Sun 01:46:41 PM 34.9792 -76.8139 154° Southeast 262 302 2,600 -550 Descending Washington Center
Sun 01:47:41 PM 34.9192 -76.7750 152° Southeast 250 288 2,600  Level Washington Center

Login

Don't have an account? Register now (free) for customized features, flight alerts, and more!